Go Pro

Ferguson (FERG) Institutional Ownership

Ferguson logo
$223.31 +2.08 (+0.94%)
As of 03:58 PM Eastern

Institutional Ownership Changes (13F Filings) for Ferguson (NYSE:FERG)

Current
Institutional Ownership
Percentage
81.98%
Number of
Institutional Buyers
(last 12 months)
571
Total
Institutional Inflows
(last 12 months)
$24.58B
Number of
Institutional Sellers
(last 12 months)
397
Total
Institutional Outflows
(last 12 months)
$6.31B
Get FERG Insider Trade Alerts

Want to know when executives and insiders are buying or selling Ferguson stock? Sign up for InsiderTrades.com's daily newsletter to get the latest insider transactions delivered to your inbox daily.

SMS is currently available in Australia, Belgium, Canada, France, Germany, Ireland, Italy, New Zealand, the Netherlands, Singapore, South Africa, Spain, Switzerland, the United Kingdom, and the United States. By entering your phone number and clicking the sign-up button, you agree to receive periodic text messages from MarketBeat at the phone number you submitted, including texts that may be sent using an automatic telephone dialing system. Message and data rates may apply. Message frequency will vary. Messages will consist of stock alerts, news stories, and partner advertisements/offers. Consent is not a condition of the purchase of any goods or services. Text HELP for help/customer support. Unsubscribe at any time by replying "STOP" to any text message that you receive from MarketBeat or by visiting our mailing preferences page. Read our full terms of service and privacy policy.
Skip Chart & View Institutional Buying and Selling Data

FERG Institutional Buying and Selling by Quarter

Ferguson Major Shareholders & Ownership History

Reporting DateMajor Shareholder NameShares HeldMarket Value% of PortfolioQuarterly Change in SharesOwnership in CompanyDetails
9/3/2026 Anchor Capital Advisors LLC300,874$71.41M1.2%-1.5%0.156%
9/2/2026 Allianz Asset Management GmbH751,342$178.32M0.1%-0.3%0.388%
8/27/2026 Corient Private Wealth LP12,706$3.02M0.0%-6.1%0.007%
8/26/2026 Giverny Capital Inc.37,380$8.87M0.3%+1.8%0.019%
8/26/2026 Amundi1,067,886$253.43M0.1%-19.2%0.552%
8/26/2026 HighTower Advisors LLC23,554$5.59M0.0%+5.6%0.012%
8/25/2026 Groupe la Francaise20,152$4.78M0.1%+18.4%0.010%
8/25/2026 VIRGINIA RETIREMENT SYSTEMS ET Al97,100$23.05M0.1%N/A0.050%
8/24/2026 First Eagle Investment Management LLC659,054$156.41M0.2%+4.1%0.341%
8/24/2026 Vancity Investment Management Ltd54,649$12.97M1.9%-6.8%0.028%
8/24/2026 California State Teachers Retirement System69,745,828$16.55B0.0%+23,684.2%36.054%
8/23/2026 Greenland Capital Management LP6,242$1.48M0.2%N/A0.003%
8/23/2026 Crow s Nest Holdings LP76,000$18.04M5.5%-37.2%0.039%
8/23/2026 Saudi Central Bank13,607$3.23M0.0%+88.5%0.007%
8/23/2026 Angeles Wealth Management LLC928$221K0.0%N/A0.000%
8/22/2026 Compass Financial Management LLC130$32K0.0%N/A0.000%
8/22/2026 Markowski Investments461$109K0.0%N/A0.000%
8/22/2026 Munich Reinsurance Co Stock Corp in Munich326,515$77.51M1.8%+2.5%0.169%
8/22/2026 TD Waterhouse Canada Inc.26,457$6.07M0.0%-7.6%0.014%
8/22/2026 Concurrent Investment Advisors LLC3,908$927K0.0%+68.7%0.002%
8/21/2026 AXQ Capital LP1,270$301K0.0%-65.9%0.001%
8/21/2026 Nykredit A S49,811$11.83M0.0%N/A0.026%
8/21/2026 B. Metzler seel. Sohn & Co. AG34,429$8.17M0.1%-7.7%0.018%
8/21/2026 Live Oak Private Wealth LLC19,062$4.52M0.6%-1.1%0.010%
8/21/2026 Natural Investments LLC944$224K0.1%+6.9%0.000%
8/20/2026 Clifford Swan Investment Counsel LLC74,101$17.59M0.6%-1.4%0.038%
8/20/2026 Rehmann Capital Advisory Group1,659$394K0.0%+6.4%0.001%
8/20/2026 Montanova Capital LLC246,758$58.56M1.0%+16.5%0.128%
8/20/2026 Two Sigma Securities LLC4,816$1.14M0.1%N/A0.002%
8/20/2026 Benjamin Edwards Inc.5,949$1.41M0.0%-3.7%0.003%
8/20/2026 Northwestern Mutual Wealth Management Co.747$177K0.0%+12.2%0.000%
8/20/2026 Wedbush Securities Inc.1,197$284K0.0%+4.3%0.001%
8/20/2026 Greenleaf Trust3,659$868K0.0%-3.5%0.002%
8/19/2026 UBS AM a distinct business unit of UBS ASSET MANAGEMENT AMERICAS LLC2,055,351$487.80M0.1%+0.8%1.062%
8/19/2026 Royal London Asset Management Ltd.919,100$218.13M0.4%+31.5%0.475%
8/19/2026 Van ECK Associates Corp36,383$8.64M0.0%-10.5%0.019%
8/19/2026 Nissay Asset Management Corp Japan27,033$6.42M0.0%-9.6%0.014%
8/19/2026 Hsbc Holdings PLC427,091$101.42M0.0%+81.4%0.221%
8/19/2026 Wellington Management Group LLP7,209,558$1.71B0.3%-15.1%3.727%
8/17/2026 Corient Private Wealth LP12,711$3.02M0.0%-6.1%0.007%
Porter flew 3,300 miles to investigate this system (Ad)

Porter Stansberry flew the Porter and Co. team 3,300 miles to Dublin to investigate a 17-year investing experiment called Project Prophet - and documented everything on film. Rooted in the laws of physics, this quantitative approach challenges conventional wealth-building wisdom. With 17 years of verified data behind it, Porter calls it unlike anything he has seen in nearly 30 years in the business.tc pixel

Watch the full investigation and decide for yourself
8/15/2026 Caisse de depot et placement du Quebec13,861$3.29M0.0%-90.5%0.007%
8/15/2026 Man Group plc401,395$95.26M0.2%+613.8%0.207%
8/15/2026 Jupiter Topco LLC7,538,616$1.79B0.7%N/A3.897%
8/15/2026 Kinetic Partners Management LP80,710$19.16M0.5%-16.4%0.042%
8/14/2026 Hsbc Holdings PLC427,091$101.42M0.0%+81.4%0.221%
8/14/2026 EFG International AG9,027$2.14M0.0%-6.0%0.005%
8/14/2026 PDT Partners LLC10,100$2.40M0.1%N/A0.005%
8/14/2026 Canada Pension Plan Investment Board17,252$4.09M0.0%-93.7%0.009%
8/14/2026 Osterweis Capital Management Inc.115,641$27.45M1.3%-1.8%0.060%
8/14/2026 Legal & General Group Plc1,368,081$324.99M0.1%-3.8%0.707%
8/14/2026 The Manufacturers Life Insurance Company12,016$2.85M0.0%-4.6%0.006%
8/14/2026 Jones Financial Companies Lllp96,108$22.93M0.0%+13.2%0.050%
8/14/2026 Sone Capital Management LLC119,297$28.31M2.2%+18.9%0.062%
8/14/2026 L2 Asset Management LLC1,109$263K0.0%+5.2%0.001%
8/14/2026 Vega Investment Solutions277$66K0.0%+50.5%0.000%
8/14/2026 Algert Global LLC12,078$2.87M0.0%N/A0.006%
8/13/2026 Allstate Corp19,159$4.55M0.0%-14.7%0.010%
8/13/2026 Cibc World Market Inc.7,847$1.86M0.0%-47.4%0.004%
8/13/2026 OMERS ADMINISTRATION Corp14,214$3.37M0.0%-18.5%0.007%
8/13/2026 Osmosis Investment Management UK Ltd5,455$1.30M0.1%-48.4%0.003%
8/13/2026 Barbara Oil Co.4,600$1.08M0.4%N/A0.002%
8/13/2026 Saranac Partners Ltd1,625$386K0.1%+12.8%0.001%
8/13/2026 Promethos Capital LLC7,385$1.75M0.5%-48.8%0.004%
8/13/2026 Bank of Nova Scotia12,304$2.92M0.0%-55.9%0.006%
8/12/2026 Compass Financial Management LLC130$32K0.0%N/A0.000%
8/12/2026 Elevation Point Wealth Partners LLC13,024$3.09M0.1%-3.4%0.007%
8/12/2026 Greenland Capital Management LP6,242$1.48M0.2%N/A0.003%
8/12/2026 Commerce Bank9,280$2.20M0.0%-0.6%0.005%
8/12/2026 Northwestern Mutual Wealth Management Co.747$177K0.0%+12.2%0.000%
8/12/2026 Gabelli Funds LLC2,900$688K0.0%-3.3%0.001%
8/12/2026 Evolve Private Wealth LLC1,005$240K0.0%-49.8%0.001%
8/12/2026 Findlay Park Partners LLP618,810$146.86M2.0%+24.6%0.319%
8/12/2026 W1M Asset Management Ltd1,980,510$469.95M4.3%+6.2%1.021%
8/12/2026 George Kaiser Family Foundation980$233K0.0%N/A0.001%
8/12/2026 TRB Wealth Management LLC860$204K0.0%N/A0.000%
8/12/2026 Korea Investment CORP120,077$28.50M0.1%-8.5%0.062%
8/12/2026 Ieq Capital LLC3,165$751K0.0%-85.9%0.002%
8/12/2026 Callan Family Office LLC8,783$2.09M0.0%+7.9%0.005%
8/11/2026 Keating Financial Advisory Services Inc.296$70K0.0%+93.5%0.000%
8/11/2026 OneAscent Investment Solutions LLC1,462$347K0.3%-22.8%0.001%
8/11/2026 OneAscent Family Office LLC853$202K0.1%N/A0.000%
8/11/2026 Allworth Financial LP1,155$274K0.0%-8.1%0.001%
8/11/2026 B. Metzler seel. Sohn & Co. AG34,429$8.17M0.1%-7.7%0.018%
8/11/2026 Silvant Capital Management LLC30,365$7.21M0.2%+61.4%0.016%
8/11/2026 Impax Asset Management Group plc70,177$16.66M0.1%-1.0%0.036%
8/11/2026 Ceredex Value Advisors LLC183,143$43.47M1.2%+111.3%0.094%
8/11/2026 Sycale Advisors NY LLC42,109$9.99M3.1%+321.5%0.022%
8/11/2026 Trillium Asset Management LLC112,368$26.69M0.8%-22.7%0.058%
8/11/2026 Vise Technologies Inc.7,305$1.73M0.0%+56.4%0.004%
8/11/2026 Madison Asset Management LLC355,611$84.40M1.0%-4.7%0.183%
ALERT: Drop these 5 stocks before the market opens tomorrow! (Ad)

The Wall Street Journal is already raising the alarm about a potential market crash, and Weiss Ratings research points to the first half of 2026 as a particularly rough stretch for certain holdings. Some of America's most popular stocks could take serious damage as a radical market shift plays out. Analysts at Weiss Ratings have identified five names you may want to remove from your portfolio before this unfolds. If any of these are in your portfolio, now is the time to review your positions.tc pixel

8/10/2026 West Family Investments Inc.1,053$250K0.1%N/A0.001%
8/10/2026 NewEdge Wealth LLC867$206K0.0%N/A0.000%
8/10/2026 Danske Bank A S105,654$25.08M0.0%+0.6%0.054%
7/10/2026 Diversified Management Inc.3,299$783K0.2%-81.0%0.002%
7/10/2026 E. Ohman J or Asset Management AB6,520$1.55M0.0%-8.4%0.003%
7/10/2026 Handelsbanken Fonder AB96,068$22.80M0.1%+6.6%0.050%
7/9/2026 First Bank & Trust1,184$281K0.0%-8.6%0.001%
7/9/2026 Dudley & Shanley Inc.104,225$24.74M3.7%+0.0%0.054%
7/9/2026 HF Advisory Group LLC5,000$1.19M0.4%+1.6%0.003%
7/9/2026 Oliver Luxxe Assets LLC20,396$4.84M0.7%-0.5%0.011%


FERG Institutional Ownership - Frequently Asked Questions

During the previous two years, 992 institutional investors and hedge funds held shares of Ferguson. The most heavily invested institutionals were California State Teachers Retirement System ($16.55B), Vanguard Group Inc. ($4.32B), Jupiter Topco LLC ($1.79B), FMR LLC ($1.74B), Wellington Management Group LLP ($1.71B), Janus Henderson Group PLC ($1.42B), and Bank of New York Mellon Corp ($1.33B).Learn more on Ferguson's institutional investors.

81.98% of Ferguson's stock is owned by institutional investors. Learn more on FERG's institutional investor holdings.

Of the 878 institutional investors that purchased Ferguson's stock in the last 24 months, the following investors and hedge funds have bought the highest volume of shares: California State Teachers Retirement System ($69.45M), Jupiter Topco LLC ($7.54M), Wellington Management Group LLP ($7.44M), Norges Bank ($6.76M), Parnassus Investments LLC ($3.20M), T. Rowe Price Investment Management Inc. ($2.51M), and Barclays PLC ($2.48M).

Institutional investors have bought a total of 105,324,143 shares in the last 24 months. This purchase volume represents approximately $24.58B in transactions.

Of the 397 institutional investors that sold Ferguson's stock in the last 24 months, the following investors and hedge funds have sold the highest volume of shares: Invesco Ltd. ($3.18M), Bank of New York Mellon Corp ($1.98M), Egerton Capital UK LLP ($1.59M), Goldman Sachs Group Inc. ($1.51M), Wellington Management Group LLP ($1.28M), Diamond Hill Capital Management Inc. ($1.18M), and Amundi ($1.07M).

Institutional investors have sold a total of 28,023,639 shares in the last 24 months. This volume of shares sold represents approximately $6.31B in transactions.



Institutional ownership data for NYSE:FERG is compiled from quarterly 13F filings submitted to the U.S. Securities and Exchange Commission (SEC), with the most recent received on 9/3/2026. New 13F filings are added each quarter as they're published.
From Our Partners